sensor_id;sensor_type;location;lat;lon;timestamp;P1;durP1;ratioP1;P2;durP2;ratioP2
69511;SDS011;70777;52.034;4.644;2024-02-21T00:00:47;17.95;;;4.43;;
69511;SDS011;70777;52.034;4.644;2024-02-21T00:03:13;11.65;;;3.35;;
69511;SDS011;70777;52.034;4.644;2024-02-21T00:05:38;16.73;;;3.92;;
69511;SDS011;70777;52.034;4.644;2024-02-21T00:08:04;19.42;;;4.05;;
69511;SDS011;70777;52.034;4.644;2024-02-21T00:10:29;8.68;;;2.83;;
69511;SDS011;70777;52.034;4.644;2024-02-21T00:15:22;14.02;;;3.08;;
69511;SDS011;70777;52.034;4.644;2024-02-21T00:17:47;14.50;;;3.42;;
69511;SDS011;70777;52.034;4.644;2024-02-21T00:20:14;18.95;;;2.95;;
69511;SDS011;70777;52.034;4.644;2024-02-21T00:22:40;18.10;;;3.25;;
69511;SDS011;70777;52.034;4.644;2024-02-21T00:25:06;26.20;;;3.65;;
69511;SDS011;70777;52.034;4.644;2024-02-21T00:27:32;13.85;;;3.28;;
69511;SDS011;70777;52.034;4.644;2024-02-21T00:29:57;14.93;;;2.92;;
69511;SDS011;70777;52.034;4.644;2024-02-21T00:32:22;15.20;;;3.42;;
69511;SDS011;70777;52.034;4.644;2024-02-21T00:34:48;14.30;;;3.10;;
69511;SDS011;70777;52.034;4.644;2024-02-21T00:37:13;15.32;;;3.13;;
69511;SDS011;70777;52.034;4.644;2024-02-21T00:39:39;17.60;;;2.75;;
69511;SDS011;70777;52.034;4.644;2024-02-21T00:42:04;17.35;;;3.03;;
69511;SDS011;70777;52.034;4.644;2024-02-21T00:44:30;24.33;;;3.45;;
69511;SDS011;70777;52.034;4.644;2024-02-21T00:46:55;20.88;;;4.07;;
69511;SDS011;70777;52.034;4.644;2024-02-21T00:49:20;13.85;;;3.28;;
69511;SDS011;70777;52.034;4.644;2024-02-21T00:51:46;14.63;;;3.47;;
69511;SDS011;70777;52.034;4.644;2024-02-21T00:54:12;16.48;;;3.67;;
69511;SDS011;70777;52.034;4.644;2024-02-21T00:56:38;13.60;;;3.55;;
69511;SDS011;70777;52.034;4.644;2024-02-21T00:59:03;13.55;;;3.20;;
69511;SDS011;70777;52.034;4.644;2024-02-21T01:01:28;13.02;;;3.70;;
69511;SDS011;70777;52.034;4.644;2024-02-21T01:03:54;19.33;;;3.60;;
69511;SDS011;70777;52.034;4.644;2024-02-21T01:06:19;18.67;;;4.22;;
69511;SDS011;70777;52.034;4.644;2024-02-21T01:08:46;16.65;;;4.45;;
69511;SDS011;70777;52.034;4.644;2024-02-21T01:11:13;13.93;;;3.97;;
69511;SDS011;70777;52.034;4.644;2024-02-21T01:13:38;14.02;;;3.28;;
69511;SDS011;70777;52.034;4.644;2024-02-21T01:16:04;15.25;;;3.63;;
69511;SDS011;70777;52.034;4.644;2024-02-21T01:18:31;17.15;;;3.13;;
69511;SDS011;70777;52.034;4.644;2024-02-21T01:20:59;20.75;;;4.15;;
69511;SDS011;70777;52.034;4.644;2024-02-21T01:23:25;11.93;;;2.95;;
69511;SDS011;70777;52.034;4.644;2024-02-21T01:25:50;13.85;;;2.92;;
69511;SDS011;70777;52.034;4.644;2024-02-21T01:28:16;16.45;;;4.68;;
69511;SDS011;70777;52.034;4.644;2024-02-21T01:30:41;13.48;;;3.13;;
69511;SDS011;70777;52.034;4.644;2024-02-21T01:33:07;15.02;;;3.15;;
69511;SDS011;70777;52.034;4.644;2024-02-21T01:35:34;12.07;;;3.00;;
69511;SDS011;70777;52.034;4.644;2024-02-21T01:37:59;15.68;;;2.97;;
69511;SDS011;70777;52.034;4.644;2024-02-21T01:40:25;8.60;;;2.40;;
69511;SDS011;70777;52.034;4.644;2024-02-21T01:42:50;18.95;;;3.17;;
69511;SDS011;70777;52.034;4.644;2024-02-21T01:45:18;22.13;;;5.20;;
69511;SDS011;70777;52.034;4.644;2024-02-21T01:47:44;20.50;;;2.78;;
69511;SDS011;70777;52.034;4.644;2024-02-21T01:50:09;11.57;;;3.13;;
69511;SDS011;70777;52.034;4.644;2024-02-21T01:52:35;13.65;;;3.08;;
69511;SDS011;70777;52.034;4.644;2024-02-21T01:55:01;15.02;;;3.45;;
69511;SDS011;70777;52.034;4.644;2024-02-21T01:57:27;20.60;;;3.95;;
69511;SDS011;70777;52.034;4.644;2024-02-21T01:59:53;13.25;;;3.00;;
69511;SDS011;70777;52.034;4.644;2024-02-21T02:02:19;16.08;;;3.53;;
69511;SDS011;70777;52.034;4.644;2024-02-21T02:04:44;10.93;;;2.95;;
69511;SDS011;70777;52.034;4.644;2024-02-21T02:07:10;17.42;;;3.60;;
69511;SDS011;70777;52.034;4.644;2024-02-21T02:09:35;18.15;;;4.03;;
69511;SDS011;70777;52.034;4.644;2024-02-21T02:12:01;17.20;;;3.72;;
69511;SDS011;70777;52.034;4.644;2024-02-21T02:14:27;19.92;;;4.03;;
69511;SDS011;70777;52.034;4.644;2024-02-21T02:16:52;13.05;;;3.22;;
69511;SDS011;70777;52.034;4.644;2024-02-21T02:19:17;14.02;;;3.42;;
69511;SDS011;70777;52.034;4.644;2024-02-21T02:21:46;18.27;;;3.63;;
69511;SDS011;70777;52.034;4.644;2024-02-21T02:24:13;13.85;;;3.55;;
69511;SDS011;70777;52.034;4.644;2024-02-21T02:26:39;13.85;;;3.13;;
69511;SDS011;70777;52.034;4.644;2024-02-21T02:29:04;15.68;;;3.55;;
69511;SDS011;70777;52.034;4.644;2024-02-21T02:31:30;16.77;;;3.72;;
69511;SDS011;70777;52.034;4.644;2024-02-21T02:33:55;18.85;;;3.17;;
69511;SDS011;70777;52.034;4.644;2024-02-21T02:36:21;11.75;;;3.63;;
69511;SDS011;70777;52.034;4.644;2024-02-21T02:38:46;20.08;;;4.63;;
69511;SDS011;70777;52.034;4.644;2024-02-21T02:41:11;14.23;;;3.42;;
69511;SDS011;70777;52.034;4.644;2024-02-21T02:43:37;24.65;;;3.88;;
69511;SDS011;70777;52.034;4.644;2024-02-21T02:46:02;12.35;;;3.50;;
69511;SDS011;70777;52.034;4.644;2024-02-21T02:48:28;14.77;;;3.45;;
69511;SDS011;70777;52.034;4.644;2024-02-21T02:50:54;14.93;;;3.40;;
69511;SDS011;70777;52.034;4.644;2024-02-21T02:53:20;17.50;;;4.70;;
69511;SDS011;70777;52.034;4.644;2024-02-21T02:55:45;11.82;;;3.20;;
69511;SDS011;70777;52.034;4.644;2024-02-21T02:58:10;13.93;;;3.72;;
69511;SDS011;70777;52.034;4.644;2024-02-21T03:00:36;14.90;;;3.55;;
69511;SDS011;70777;52.034;4.644;2024-02-21T03:03:01;15.38;;;3.83;;
69511;SDS011;70777;52.034;4.644;2024-02-21T03:05:30;16.95;;;4.32;;
69511;SDS011;70777;52.034;4.644;2024-02-21T03:07:56;19.60;;;4.28;;
69511;SDS011;70777;52.034;4.644;2024-02-21T03:10:21;12.98;;;4.55;;
69511;SDS011;70777;52.034;4.644;2024-02-21T03:12:46;12.98;;;4.68;;
69511;SDS011;70777;52.034;4.644;2024-02-21T03:15:12;11.48;;;4.60;;
69511;SDS011;70777;52.034;4.644;2024-02-21T03:17:38;11.75;;;4.72;;
69511;SDS011;70777;52.034;4.644;2024-02-21T03:20:04;13.85;;;3.78;;
69511;SDS011;70777;52.034;4.644;2024-02-21T03:22:30;17.45;;;4.95;;
69511;SDS011;70777;52.034;4.644;2024-02-21T03:24:58;13.75;;;3.92;;
69511;SDS011;70777;52.034;4.644;2024-02-21T03:27:23;13.90;;;4.30;;
69511;SDS011;70777;52.034;4.644;2024-02-21T03:29:49;13.60;;;3.90;;
69511;SDS011;70777;52.034;4.644;2024-02-21T03:32:14;11.48;;;3.85;;
69511;SDS011;70777;52.034;4.644;2024-02-21T03:34:40;15.00;;;4.40;;
69511;SDS011;70777;52.034;4.644;2024-02-21T03:37:05;17.38;;;4.57;;
69511;SDS011;70777;52.034;4.644;2024-02-21T03:39:31;11.60;;;4.07;;
69511;SDS011;70777;52.034;4.644;2024-02-21T03:41:57;10.40;;;4.40;;
69511;SDS011;70777;52.034;4.644;2024-02-21T03:44:23;17.10;;;4.70;;
69511;SDS011;70777;52.034;4.644;2024-02-21T03:46:48;14.32;;;4.25;;
69511;SDS011;70777;52.034;4.644;2024-02-21T03:49:13;14.00;;;4.45;;
69511;SDS011;70777;52.034;4.644;2024-02-21T03:51:39;12.32;;;5.00;;
69511;SDS011;70777;52.034;4.644;2024-02-21T03:54:04;17.42;;;5.00;;
69511;SDS011;70777;52.034;4.644;2024-02-21T03:56:30;16.80;;;4.53;;
69511;SDS011;70777;52.034;4.644;2024-02-21T03:58:55;11.32;;;4.50;;
69511;SDS011;70777;52.034;4.644;2024-02-21T04:01:20;13.23;;;5.00;;
69511;SDS011;70777;52.034;4.644;2024-02-21T04:03:46;13.90;;;5.75;;
69511;SDS011;70777;52.034;4.644;2024-02-21T04:06:11;14.90;;;5.50;;
69511;SDS011;70777;52.034;4.644;2024-02-21T04:08:37;14.27;;;6.05;;
69511;SDS011;70777;52.034;4.644;2024-02-21T04:11:02;12.77;;;5.82;;
69511;SDS011;70777;52.034;4.644;2024-02-21T04:13:28;14.93;;;7.03;;
69511;SDS011;70777;52.034;4.644;2024-02-21T04:15:53;17.15;;;6.63;;
69511;SDS011;70777;52.034;4.644;2024-02-21T04:18:19;20.33;;;7.68;;
69511;SDS011;70777;52.034;4.644;2024-02-21T04:20:44;17.67;;;7.20;;
69511;SDS011;70777;52.034;4.644;2024-02-21T04:23:10;19.33;;;7.65;;
69511;SDS011;70777;52.034;4.644;2024-02-21T04:25:35;13.15;;;7.28;;
69511;SDS011;70777;52.034;4.644;2024-02-21T04:28:01;18.67;;;8.13;;
69511;SDS011;70777;52.034;4.644;2024-02-21T04:30:26;17.40;;;8.48;;
69511;SDS011;70777;52.034;4.644;2024-02-21T04:32:52;16.15;;;7.13;;
69511;SDS011;70777;52.034;4.644;2024-02-21T04:35:17;15.88;;;7.38;;
69511;SDS011;70777;52.034;4.644;2024-02-21T04:37:43;22.75;;;8.30;;
69511;SDS011;70777;52.034;4.644;2024-02-21T04:40:08;19.98;;;7.80;;
69511;SDS011;70777;52.034;4.644;2024-02-21T04:42:34;16.35;;;7.70;;
69511;SDS011;70777;52.034;4.644;2024-02-21T04:45:00;22.98;;;7.40;;
69511;SDS011;70777;52.034;4.644;2024-02-21T04:47:25;14.27;;;7.75;;
69511;SDS011;70777;52.034;4.644;2024-02-21T04:49:51;13.20;;;7.15;;
69511;SDS011;70777;52.034;4.644;2024-02-21T04:52:17;15.68;;;7.00;;
69511;SDS011;70777;52.034;4.644;2024-02-21T04:54:42;14.68;;;7.85;;
69511;SDS011;70777;52.034;4.644;2024-02-21T04:57:07;14.77;;;7.15;;
69511;SDS011;70777;52.034;4.644;2024-02-21T04:59:35;15.45;;;6.82;;
69511;SDS011;70777;52.034;4.644;2024-02-21T05:02:01;19.27;;;7.93;;
69511;SDS011;70777;52.034;4.644;2024-02-21T05:04:26;14.57;;;7.47;;
69511;SDS011;70777;52.034;4.644;2024-02-21T05:06:51;18.23;;;8.52;;
69511;SDS011;70777;52.034;4.644;2024-02-21T05:09:17;17.15;;;7.70;;
69511;SDS011;70777;52.034;4.644;2024-02-21T05:11:42;20.50;;;9.07;;
69511;SDS011;70777;52.034;4.644;2024-02-21T05:14:08;14.18;;;7.63;;
69511;SDS011;70777;52.034;4.644;2024-02-21T05:16:33;16.42;;;7.80;;
69511;SDS011;70777;52.034;4.644;2024-02-21T05:18:58;17.00;;;6.72;;
69511;SDS011;70777;52.034;4.644;2024-02-21T05:21:24;18.77;;;6.93;;
69511;SDS011;70777;52.034;4.644;2024-02-21T05:23:50;16.80;;;7.00;;
69511;SDS011;70777;52.034;4.644;2024-02-21T05:26:25;10.60;;;6.22;;
69511;SDS011;70777;52.034;4.644;2024-02-21T05:28:50;17.35;;;6.30;;
69511;SDS011;70777;52.034;4.644;2024-02-21T05:31:17;14.27;;;6.50;;
69511;SDS011;70777;52.034;4.644;2024-02-21T05:33:43;17.98;;;7.70;;
69511;SDS011;70777;52.034;4.644;2024-02-21T05:36:12;18.35;;;6.95;;
69511;SDS011;70777;52.034;4.644;2024-02-21T05:38:38;16.52;;;8.10;;
69511;SDS011;70777;52.034;4.644;2024-02-21T05:41:03;13.35;;;7.50;;
69511;SDS011;70777;52.034;4.644;2024-02-21T05:43:29;19.45;;;7.70;;
69511;SDS011;70777;52.034;4.644;2024-02-21T05:45:55;12.38;;;7.25;;
69511;SDS011;70777;52.034;4.644;2024-02-21T05:48:21;14.73;;;8.27;;
69511;SDS011;70777;52.034;4.644;2024-02-21T05:50:48;15.80;;;7.05;;
69511;SDS011;70777;52.034;4.644;2024-02-21T05:53:13;17.42;;;8.10;;
69511;SDS011;70777;52.034;4.644;2024-02-21T05:55:39;22.52;;;9.23;;
69511;SDS011;70777;52.034;4.644;2024-02-21T05:58:05;22.90;;;9.52;;
69511;SDS011;70777;52.034;4.644;2024-02-21T06:00:31;20.77;;;8.75;;
69511;SDS011;70777;52.034;4.644;2024-02-21T06:02:57;20.52;;;9.05;;
69511;SDS011;70777;52.034;4.644;2024-02-21T06:05:22;18.95;;;10.30;;
69511;SDS011;70777;52.034;4.644;2024-02-21T06:07:48;19.90;;;9.43;;
69511;SDS011;70777;52.034;4.644;2024-02-21T06:10:13;18.73;;;10.57;;
69511;SDS011;70777;52.034;4.644;2024-02-21T06:12:39;21.40;;;9.45;;
69511;SDS011;70777;52.034;4.644;2024-02-21T06:15:04;18.67;;;9.57;;
69511;SDS011;70777;52.034;4.644;2024-02-21T06:17:30;18.15;;;9.30;;
69511;SDS011;70777;52.034;4.644;2024-02-21T06:19:55;20.05;;;9.50;;
69511;SDS011;70777;52.034;4.644;2024-02-21T06:22:21;27.13;;;10.40;;
69511;SDS011;70777;52.034;4.644;2024-02-21T06:24:46;24.50;;;9.65;;
69511;SDS011;70777;52.034;4.644;2024-02-21T06:27:12;29.10;;;9.98;;
69511;SDS011;70777;52.034;4.644;2024-02-21T06:29:39;16.65;;;9.90;;
69511;SDS011;70777;52.034;4.644;2024-02-21T06:32:05;22.45;;;9.38;;
69511;SDS011;70777;52.034;4.644;2024-02-21T06:34:31;21.15;;;10.43;;
69511;SDS011;70777;52.034;4.644;2024-02-21T06:36:56;20.85;;;9.23;;
69511;SDS011;70777;52.034;4.644;2024-02-21T06:39:22;22.92;;;10.27;;
69511;SDS011;70777;52.034;4.644;2024-02-21T06:41:48;19.50;;;10.23;;
69511;SDS011;70777;52.034;4.644;2024-02-21T06:44:15;16.38;;;9.60;;
69511;SDS011;70777;52.034;4.644;2024-02-21T06:46:41;24.13;;;10.60;;
69511;SDS011;70777;52.034;4.644;2024-02-21T06:49:06;22.67;;;10.20;;
69511;SDS011;70777;52.034;4.644;2024-02-21T06:51:31;20.50;;;10.32;;
69511;SDS011;70777;52.034;4.644;2024-02-21T06:53:58;21.10;;;9.15;;
69511;SDS011;70777;52.034;4.644;2024-02-21T06:56:24;20.15;;;9.63;;
69511;SDS011;70777;52.034;4.644;2024-02-21T06:58:54;19.33;;;9.82;;
69511;SDS011;70777;52.034;4.644;2024-02-21T07:01:20;24.27;;;8.93;;
69511;SDS011;70777;52.034;4.644;2024-02-21T07:03:45;24.27;;;9.27;;
69511;SDS011;70777;52.034;4.644;2024-02-21T07:06:11;28.17;;;9.05;;
69511;SDS011;70777;52.034;4.644;2024-02-21T07:08:37;23.85;;;9.13;;
69511;SDS011;70777;52.034;4.644;2024-02-21T07:11:03;19.35;;;9.35;;
69511;SDS011;70777;52.034;4.644;2024-02-21T07:13:29;21.63;;;9.70;;
69511;SDS011;70777;52.034;4.644;2024-02-21T07:15:55;18.02;;;10.07;;
69511;SDS011;70777;52.034;4.644;2024-02-21T07:18:20;24.30;;;11.27;;
69511;SDS011;70777;52.034;4.644;2024-02-21T07:20:46;28.42;;;10.35;;
69511;SDS011;70777;52.034;4.644;2024-02-21T07:23:11;26.42;;;11.68;;
69511;SDS011;70777;52.034;4.644;2024-02-21T07:25:38;22.05;;;10.25;;
69511;SDS011;70777;52.034;4.644;2024-02-21T07:28:04;20.52;;;9.88;;
69511;SDS011;70777;52.034;4.644;2024-02-21T07:30:31;20.03;;;10.80;;
69511;SDS011;70777;52.034;4.644;2024-02-21T07:32:56;21.00;;;11.05;;
69511;SDS011;70777;52.034;4.644;2024-02-21T07:35:21;23.85;;;10.23;;
69511;SDS011;70777;52.034;4.644;2024-02-21T07:37:47;19.83;;;10.15;;
69511;SDS011;70777;52.034;4.644;2024-02-21T07:40:13;24.88;;;10.30;;
69511;SDS011;70777;52.034;4.644;2024-02-21T07:42:40;29.27;;;11.07;;
69511;SDS011;70777;52.034;4.644;2024-02-21T07:45:07;24.08;;;11.57;;
69511;SDS011;70777;52.034;4.644;2024-02-21T07:47:32;22.67;;;11.88;;
69511;SDS011;70777;52.034;4.644;2024-02-21T07:49:58;29.52;;;11.95;;
69511;SDS011;70777;52.034;4.644;2024-02-21T07:52:24;26.20;;;12.15;;
69511;SDS011;70777;52.034;4.644;2024-02-21T07:54:49;26.10;;;11.48;;
69511;SDS011;70777;52.034;4.644;2024-02-21T07:57:15;24.05;;;10.65;;
69511;SDS011;70777;52.034;4.644;2024-02-21T07:59:41;24.88;;;11.30;;
69511;SDS011;70777;52.034;4.644;2024-02-21T08:02:07;20.85;;;10.45;;
69511;SDS011;70777;52.034;4.644;2024-02-21T08:04:32;20.48;;;9.85;;
69511;SDS011;70777;52.034;4.644;2024-02-21T08:06:58;20.63;;;10.43;;
69511;SDS011;70777;52.034;4.644;2024-02-21T08:09:29;24.15;;;10.43;;
69511;SDS011;70777;52.034;4.644;2024-02-21T08:11:54;22.13;;;10.40;;
69511;SDS011;70777;52.034;4.644;2024-02-21T08:14:20;21.55;;;10.98;;
69511;SDS011;70777;52.034;4.644;2024-02-21T08:16:46;26.33;;;11.20;;
69511;SDS011;70777;52.034;4.644;2024-02-21T08:19:12;21.48;;;10.85;;
69511;SDS011;70777;52.034;4.644;2024-02-21T08:21:37;22.27;;;10.13;;
69511;SDS011;70777;52.034;4.644;2024-02-21T08:24:03;25.77;;;10.77;;
69511;SDS011;70777;52.034;4.644;2024-02-21T08:26:28;24.08;;;10.93;;
69511;SDS011;70777;52.034;4.644;2024-02-21T08:28:58;25.98;;;11.05;;
69511;SDS011;70777;52.034;4.644;2024-02-21T08:31:25;21.02;;;10.85;;
69511;SDS011;70777;52.034;4.644;2024-02-21T08:33:56;20.67;;;10.48;;
69511;SDS011;70777;52.034;4.644;2024-02-21T08:36:28;26.40;;;10.27;;
69511;SDS011;70777;52.034;4.644;2024-02-21T08:38:57;19.85;;;9.35;;
69511;SDS011;70777;52.034;4.644;2024-02-21T08:41:23;21.10;;;10.18;;
69511;SDS011;70777;52.034;4.644;2024-02-21T08:43:52;21.35;;;10.05;;
69511;SDS011;70777;52.034;4.644;2024-02-21T08:46:22;20.10;;;9.80;;
69511;SDS011;70777;52.034;4.644;2024-02-21T08:48:49;22.63;;;10.13;;
69511;SDS011;70777;52.034;4.644;2024-02-21T08:51:16;23.83;;;10.25;;
69511;SDS011;70777;52.034;4.644;2024-02-21T08:53:41;18.23;;;9.90;;
69511;SDS011;70777;52.034;4.644;2024-02-21T08:56:07;20.73;;;9.43;;
69511;SDS011;70777;52.034;4.644;2024-02-21T08:58:36;23.30;;;10.32;;
69511;SDS011;70777;52.034;4.644;2024-02-21T09:01:05;21.30;;;10.57;;
69511;SDS011;70777;52.034;4.644;2024-02-21T09:03:31;21.92;;;10.70;;
69511;SDS011;70777;52.034;4.644;2024-02-21T09:05:57;22.67;;;10.30;;
69511;SDS011;70777;52.034;4.644;2024-02-21T09:08:23;21.00;;;10.02;;
69511;SDS011;70777;52.034;4.644;2024-02-21T09:10:49;24.23;;;11.80;;
69511;SDS011;70777;52.034;4.644;2024-02-21T09:13:15;26.10;;;10.88;;
69511;SDS011;70777;52.034;4.644;2024-02-21T09:15:40;19.98;;;11.40;;
69511;SDS011;70777;52.034;4.644;2024-02-21T09:18:06;23.30;;;10.60;;
69511;SDS011;70777;52.034;4.644;2024-02-21T09:20:31;23.23;;;10.68;;
69511;SDS011;70777;52.034;4.644;2024-02-21T09:22:57;18.95;;;9.40;;
69511;SDS011;70777;52.034;4.644;2024-02-21T09:25:22;18.48;;;9.98;;
69511;SDS011;70777;52.034;4.644;2024-02-21T09:27:47;20.52;;;9.60;;
69511;SDS011;70777;52.034;4.644;2024-02-21T09:30:13;18.60;;;9.40;;
69511;SDS011;70777;52.034;4.644;2024-02-21T09:32:39;18.45;;;10.13;;
69511;SDS011;70777;52.034;4.644;2024-02-21T09:35:05;18.27;;;9.63;;
69511;SDS011;70777;52.034;4.644;2024-02-21T09:37:31;17.38;;;9.45;;
69511;SDS011;70777;52.034;4.644;2024-02-21T09:39:56;17.45;;;8.95;;
69511;SDS011;70777;52.034;4.644;2024-02-21T09:42:22;19.50;;;9.23;;
69511;SDS011;70777;52.034;4.644;2024-02-21T09:44:56;20.25;;;9.48;;
69511;SDS011;70777;52.034;4.644;2024-02-21T09:47:28;22.02;;;9.05;;
69511;SDS011;70777;52.034;4.644;2024-02-21T09:50:01;18.15;;;8.98;;
69511;SDS011;70777;52.034;4.644;2024-02-21T09:52:28;16.67;;;9.13;;
69511;SDS011;70777;52.034;4.644;2024-02-21T09:54:54;20.50;;;9.07;;
69511;SDS011;70777;52.034;4.644;2024-02-21T09:57:19;17.52;;;8.27;;
69511;SDS011;70777;52.034;4.644;2024-02-21T09:59:45;13.40;;;8.00;;
69511;SDS011;70777;52.034;4.644;2024-02-21T10:02:11;16.17;;;7.72;;
69511;SDS011;70777;52.034;4.644;2024-02-21T10:04:37;14.55;;;7.85;;
69511;SDS011;70777;52.034;4.644;2024-02-21T10:07:04;15.93;;;8.10;;
69511;SDS011;70777;52.034;4.644;2024-02-21T10:09:31;14.93;;;7.80;;
69511;SDS011;70777;52.034;4.644;2024-02-21T10:12:07;13.32;;;6.90;;
69511;SDS011;70777;52.034;4.644;2024-02-21T10:14:34;18.48;;;7.82;;
69511;SDS011;70777;52.034;4.644;2024-02-21T10:17:00;12.23;;;6.85;;
69511;SDS011;70777;52.034;4.644;2024-02-21T10:19:25;14.13;;;7.00;;
69511;SDS011;70777;52.034;4.644;2024-02-21T10:22:04;13.13;;;7.32;;
69511;SDS011;70777;52.034;4.644;2024-02-21T10:24:30;11.00;;;7.13;;
69511;SDS011;70777;52.034;4.644;2024-02-21T10:27:04;22.55;;;6.95;;
69511;SDS011;70777;52.034;4.644;2024-02-21T10:29:33;15.45;;;7.45;;
69511;SDS011;70777;52.034;4.644;2024-02-21T10:34:35;14.02;;;6.65;;
69511;SDS011;70777;52.034;4.644;2024-02-21T10:37:04;13.75;;;6.85;;
69511;SDS011;70777;52.034;4.644;2024-02-21T10:39:34;13.98;;;7.32;;
69511;SDS011;70777;52.034;4.644;2024-02-21T10:42:01;12.25;;;7.32;;
69511;SDS011;70777;52.034;4.644;2024-02-21T10:44:33;14.45;;;7.60;;
69511;SDS011;70777;52.034;4.644;2024-02-21T10:47:03;13.30;;;7.75;;
69511;SDS011;70777;52.034;4.644;2024-02-21T10:49:35;12.75;;;7.57;;
69511;SDS011;70777;52.034;4.644;2024-02-21T10:54:56;13.88;;;7.90;;
69511;SDS011;70777;52.034;4.644;2024-02-21T10:57:25;17.02;;;7.80;;
69511;SDS011;70777;52.034;4.644;2024-02-21T10:59:52;13.13;;;6.65;;
69511;SDS011;70777;52.034;4.644;2024-02-21T11:02:18;11.00;;;6.70;;
69511;SDS011;70777;52.034;4.644;2024-02-21T11:04:44;12.95;;;7.65;;
69511;SDS011;70777;52.034;4.644;2024-02-21T11:07:10;11.02;;;7.18;;
69511;SDS011;70777;52.034;4.644;2024-02-21T11:09:35;11.02;;;6.25;;
69511;SDS011;70777;52.034;4.644;2024-02-21T11:12:05;12.30;;;6.18;;
69511;SDS011;70777;52.034;4.644;2024-02-21T11:14:31;15.02;;;7.13;;
69511;SDS011;70777;52.034;4.644;2024-02-21T11:16:57;13.27;;;7.40;;
69511;SDS011;70777;52.034;4.644;2024-02-21T11:19:27;13.02;;;6.68;;
69511;SDS011;70777;52.034;4.644;2024-02-21T11:21:54;9.95;;;6.22;;
69511;SDS011;70777;52.034;4.644;2024-02-21T11:24:30;11.68;;;6.65;;
69511;SDS011;70777;52.034;4.644;2024-02-21T11:27:07;9.30;;;6.13;;
69511;SDS011;70777;52.034;4.644;2024-02-21T11:29:55;12.05;;;6.63;;
69511;SDS011;70777;52.034;4.644;2024-02-21T11:32:21;10.35;;;6.38;;
69511;SDS011;70777;52.034;4.644;2024-02-21T11:37:31;10.57;;;6.43;;
69511;SDS011;70777;52.034;4.644;2024-02-21T11:40:04;9.80;;;6.57;;
69511;SDS011;70777;52.034;4.644;2024-02-21T11:42:32;11.68;;;6.38;;
69511;SDS011;70777;52.034;4.644;2024-02-21T11:44:57;12.52;;;6.43;;
69511;SDS011;70777;52.034;4.644;2024-02-21T11:47:24;12.50;;;6.13;;
69511;SDS011;70777;52.034;4.644;2024-02-21T11:49:50;13.77;;;6.43;;
69511;SDS011;70777;52.034;4.644;2024-02-21T11:52:19;11.20;;;6.05;;
69511;SDS011;70777;52.034;4.644;2024-02-21T11:54:47;11.32;;;6.30;;
69511;SDS011;70777;52.034;4.644;2024-02-21T11:57:13;12.38;;;6.22;;
69511;SDS011;70777;52.034;4.644;2024-02-21T11:59:39;12.30;;;6.53;;
69511;SDS011;70777;52.034;4.644;2024-02-21T12:02:05;9.88;;;6.30;;
69511;SDS011;70777;52.034;4.644;2024-02-21T12:04:31;10.70;;;6.68;;
69511;SDS011;70777;52.034;4.644;2024-02-21T12:06:57;13.70;;;7.45;;
69511;SDS011;70777;52.034;4.644;2024-02-21T12:09:23;10.30;;;6.53;;
69511;SDS011;70777;52.034;4.644;2024-02-21T12:11:59;11.83;;;6.43;;
69511;SDS011;70777;52.034;4.644;2024-02-21T12:14:29;12.77;;;6.68;;
69511;SDS011;70777;52.034;4.644;2024-02-21T12:16:56;13.77;;;7.13;;
69511;SDS011;70777;52.034;4.644;2024-02-21T12:19:21;9.90;;;6.13;;
69511;SDS011;70777;52.034;4.644;2024-02-21T12:21:47;13.02;;;7.53;;
69511;SDS011;70777;52.034;4.644;2024-02-21T12:24:15;10.48;;;6.22;;
69511;SDS011;70777;52.034;4.644;2024-02-21T12:26:42;13.50;;;7.40;;
69511;SDS011;70777;52.034;4.644;2024-02-21T12:29:08;12.35;;;6.40;;
69511;SDS011;70777;52.034;4.644;2024-02-21T12:31:39;11.10;;;6.70;;
69511;SDS011;70777;52.034;4.644;2024-02-21T12:34:05;12.10;;;6.18;;
69511;SDS011;70777;52.034;4.644;2024-02-21T12:36:31;10.82;;;6.50;;
69511;SDS011;70777;52.034;4.644;2024-02-21T12:38:57;14.50;;;6.80;;
69511;SDS011;70777;52.034;4.644;2024-02-21T12:41:22;10.88;;;6.10;;
69511;SDS011;70777;52.034;4.644;2024-02-21T12:43:50;12.75;;;6.50;;
69511;SDS011;70777;52.034;4.644;2024-02-21T12:46:16;11.15;;;6.25;;
69511;SDS011;70777;52.034;4.644;2024-02-21T12:48:42;11.05;;;6.38;;
69511;SDS011;70777;52.034;4.644;2024-02-21T12:51:08;12.73;;;6.63;;
69511;SDS011;70777;52.034;4.644;2024-02-21T12:53:33;14.52;;;6.45;;
69511;SDS011;70777;52.034;4.644;2024-02-21T12:55:59;10.63;;;5.88;;
69511;SDS011;70777;52.034;4.644;2024-02-21T12:58:25;12.55;;;6.30;;
69511;SDS011;70777;52.034;4.644;2024-02-21T13:00:50;12.52;;;5.70;;
69511;SDS011;70777;52.034;4.644;2024-02-21T13:03:15;11.95;;;6.07;;
69511;SDS011;70777;52.034;4.644;2024-02-21T13:05:41;11.43;;;6.07;;
69511;SDS011;70777;52.034;4.644;2024-02-21T13:08:10;13.10;;;5.82;;
69511;SDS011;70777;52.034;4.644;2024-02-21T13:10:36;10.15;;;5.95;;
69511;SDS011;70777;52.034;4.644;2024-02-21T13:13:03;10.25;;;6.28;;
69511;SDS011;70777;52.034;4.644;2024-02-21T13:15:28;13.90;;;6.03;;
69511;SDS011;70777;52.034;4.644;2024-02-21T13:17:57;12.40;;;5.88;;
69511;SDS011;70777;52.034;4.644;2024-02-21T13:20:23;8.32;;;5.32;;
69511;SDS011;70777;52.034;4.644;2024-02-21T13:22:50;11.07;;;5.20;;
69511;SDS011;70777;52.034;4.644;2024-02-21T13:25:15;10.65;;;5.78;;
69511;SDS011;70777;52.034;4.644;2024-02-21T13:27:43;11.98;;;5.72;;
69511;SDS011;70777;52.034;4.644;2024-02-21T13:30:09;15.20;;;6.72;;
69511;SDS011;70777;52.034;4.644;2024-02-21T13:32:35;15.25;;;6.68;;
69511;SDS011;70777;52.034;4.644;2024-02-21T13:35:00;11.73;;;6.65;;
69511;SDS011;70777;52.034;4.644;2024-02-21T13:37:26;15.63;;;6.28;;
69511;SDS011;70777;52.034;4.644;2024-02-21T13:39:52;12.30;;;6.07;;
69511;SDS011;70777;52.034;4.644;2024-02-21T13:42:18;9.85;;;5.40;;
69511;SDS011;70777;52.034;4.644;2024-02-21T13:44:44;10.20;;;5.30;;
69511;SDS011;70777;52.034;4.644;2024-02-21T13:47:10;13.02;;;5.47;;
69511;SDS011;70777;52.034;4.644;2024-02-21T13:49:36;11.82;;;5.63;;
69511;SDS011;70777;52.034;4.644;2024-02-21T13:52:01;10.75;;;5.30;;
69511;SDS011;70777;52.034;4.644;2024-02-21T13:54:27;8.77;;;5.03;;
69511;SDS011;70777;52.034;4.644;2024-02-21T13:56:53;12.73;;;5.00;;
69511;SDS011;70777;52.034;4.644;2024-02-21T13:59:18;10.80;;;5.00;;
69511;SDS011;70777;52.034;4.644;2024-02-21T14:01:43;13.88;;;5.63;;
69511;SDS011;70777;52.034;4.644;2024-02-21T14:04:09;9.02;;;4.70;;
69511;SDS011;70777;52.034;4.644;2024-02-21T14:06:34;9.13;;;5.18;;
69511;SDS011;70777;52.034;4.644;2024-02-21T14:09:00;11.32;;;5.05;;
69511;SDS011;70777;52.034;4.644;2024-02-21T14:11:26;11.63;;;5.32;;
69511;SDS011;70777;52.034;4.644;2024-02-21T14:13:52;11.02;;;5.30;;
69511;SDS011;70777;52.034;4.644;2024-02-21T14:16:17;11.45;;;5.20;;
69511;SDS011;70777;52.034;4.644;2024-02-21T14:18:43;9.95;;;5.45;;
69511;SDS011;70777;52.034;4.644;2024-02-21T14:21:09;10.38;;;6.22;;
69511;SDS011;70777;52.034;4.644;2024-02-21T14:23:37;9.43;;;5.57;;
69511;SDS011;70777;52.034;4.644;2024-02-21T14:26:03;11.90;;;6.07;;
69511;SDS011;70777;52.034;4.644;2024-02-21T14:28:29;12.53;;;6.20;;
69511;SDS011;70777;52.034;4.644;2024-02-21T14:30:55;10.82;;;5.63;;
69511;SDS011;70777;52.034;4.644;2024-02-21T14:33:31;15.07;;;6.20;;
69511;SDS011;70777;52.034;4.644;2024-02-21T14:35:56;16.23;;;6.40;;
69511;SDS011;70777;52.034;4.644;2024-02-21T14:38:22;16.55;;;6.82;;